Time,TemperatureF,DewpointF,PressureIn,WindDirection,WindDirectionDegrees,WindSpeedMPH,WindSpeedGustMPH,Humidity,HourlyPrecipIn,Conditions,Clouds,dailyrainin,SoftwareType,DateUTC
2013-07-31 00:04:00,66.2,65.0,30.09,West,270,0.0,0.0,96,0.00,,,0.00,VWS V14.01,2013-07-31 05:04:00,
2013-07-31 00:09:00,66.0,65.2,30.09,West,270,0.0,0.0,97,0.00,,,0.00,VWS V14.01,2013-07-31 05:09:00,
2013-07-31 00:14:00,66.0,65.2,30.09,WSW,248,1.6,1.6,97,0.00,,,0.00,VWS V14.01,2013-07-31 05:14:00,
2013-07-31 00:19:00,66.0,65.2,30.09,WSW,248,0.0,0.0,97,0.00,,,0.00,VWS V14.01,2013-07-31 05:19:00,
2013-07-31 00:25:00,66.0,65.2,30.09,WSW,248,0.0,0.0,97,0.00,,,0.00,VWS V14.01,2013-07-31 05:25:00,
2013-07-31 00:30:00,66.0,65.2,30.09,WSW,248,0.0,0.0,97,0.00,,,0.00,VWS V14.01,2013-07-31 05:30:00,
2013-07-31 00:35:00,66.2,65.3,30.09,WSW,248,0.0,0.0,97,0.00,,,0.00,VWS V14.01,2013-07-31 05:35:00,
2013-07-31 00:40:00,66.2,65.3,30.09,WSW,248,0.0,0.0,97,0.00,,,0.00,VWS V14.01,2013-07-31 05:40:00,
2013-07-31 00:45:00,66.4,65.5,30.09,WSW,248,0.0,0.0,97,0.00,,,0.00,VWS V14.01,2013-07-31 05:45:00,
2013-07-31 00:46:00,66.4,65.5,30.06,WSW,248,0.0,0.0,97,0.00,,,0.00,VWS V14.01,2013-07-31 05:46:00,
2013-07-31 00:51:00,66.4,65.5,30.06,WSW,248,0.0,0.0,97,0.00,,,0.00,VWS V14.01,2013-07-31 05:51:00,
2013-07-31 00:57:00,66.4,65.5,30.06,WSW,248,0.0,0.0,97,0.00,,,0.00,VWS V14.01,2013-07-31 05:57:00,
2013-07-31 01:02:00,66.2,65.3,30.06,WSW,248,0.0,0.0,97,0.00,,,0.00,VWS V14.01,2013-07-31 06:02:00,
2013-07-31 01:07:00,66.2,65.3,30.06,WSW,248,0.0,0.0,97,0.00,,,0.00,VWS V14.01,2013-07-31 06:07:00,
2013-07-31 01:12:00,66.2,65.3,30.06,WSW,248,0.0,0.0,97,0.00,,,0.00,VWS V14.01,2013-07-31 06:12:00,
2013-07-31 01:17:00,66.0,65.2,30.06,WSW,248,0.0,0.0,97,0.00,,,0.00,VWS V14.01,2013-07-31 06:17:00,
2013-07-31 01:22:00,66.0,65.2,30.06,WSW,248,0.0,0.0,97,0.00,,,0.00,VWS V14.01,2013-07-31 06:22:00,
2013-07-31 01:28:00,66.0,65.2,30.06,WSW,248,0.0,0.0,97,0.00,,,0.00,VWS V14.01,2013-07-31 06:28:00,
2013-07-31 01:33:00,66.0,65.4,30.09,WSW,248,0.0,0.0,98,0.00,,,0.00,VWS V14.01,2013-07-31 06:33:00,
2013-07-31 01:38:00,66.0,65.4,30.09,SSE,158,0.0,0.9,98,0.00,,,0.00,VWS V14.01,2013-07-31 06:38:00,
2013-07-31 01:43:00,65.8,65.3,30.09,SSE,158,0.0,0.0,98,0.00,,,0.00,VWS V14.01,2013-07-31 06:43:00,
2013-07-31 01:48:00,65.8,65.3,30.06,SSE,158,0.0,0.0,98,0.00,,,0.00,VWS V14.01,2013-07-31 06:48:00,
2013-07-31 01:53:00,65.7,65.1,30.06,SSE,158,0.0,0.0,98,0.00,,,0.00,VWS V14.01,2013-07-31 06:53:00,
2013-07-31 01:58:00,65.5,64.9,30.06,SSE,158,0.0,0.0,98,0.00,,,0.00,VWS V14.01,2013-07-31 06:58:00,
2013-07-31 02:03:00,65.3,64.7,30.03,SE,135,0.0,0.0,98,0.00,,,0.00,VWS V14.01,2013-07-31 07:03:00,
2013-07-31 02:08:00,65.1,64.5,30.03,SE,135,0.0,0.0,98,0.00,,,0.00,VWS V14.01,2013-07-31 07:08:00,
2013-07-31 02:13:00,64.9,64.1,30.03,SSW,202,0.0,0.0,97,0.00,,,0.00,VWS V14.01,2013-07-31 07:13:00,
2013-07-31 02:18:00,64.6,64.0,30.06,SSW,202,0.0,0.0,98,0.00,,,0.00,VWS V14.01,2013-07-31 07:18:00,
2013-07-31 02:23:00,64.4,63.8,30.06,SSW,202,0.0,0.0,98,0.00,,,0.00,VWS V14.01,2013-07-31 07:23:00,
2013-07-31 02:28:00,64.2,63.7,30.06,SSW,202,0.0,0.0,98,0.00,,,0.00,VWS V14.01,2013-07-31 07:28:00,
2013-07-31 02:34:00,64.2,63.7,30.06,SSW,202,0.0,0.0,98,0.00,,,0.00,VWS V14.01,2013-07-31 07:34:00,
2013-07-31 02:39:00,64.2,63.7,30.06,SSW,202,0.0,0.0,98,0.00,,,0.00,VWS V14.01,2013-07-31 07:39:00,
2013-07-31 02:44:00,64.2,63.7,30.06,SSE,158,0.0,0.0,98,0.00,,,0.00,VWS V14.01,2013-07-31 07:44:00,
2013-07-31 02:49:00,64.2,63.7,30.03,SSE,158,0.0,0.0,98,0.00,,,0.00,VWS V14.01,2013-07-31 07:49:00,
2013-07-31 02:54:00,64.2,63.7,30.03,SSE,158,0.0,0.0,98,0.00,,,0.00,VWS V14.01,2013-07-31 07:54:00,
2013-07-31 02:59:00,64.0,63.5,30.03,SSE,158,0.0,0.0,98,0.00,,,0.00,VWS V14.01,2013-07-31 07:59:00,
2013-07-31 03:04:00,63.9,63.3,30.06,SSE,158,0.0,0.0,98,0.00,,,0.00,VWS V14.01,2013-07-31 08:04:00,
2013-07-31 03:09:00,63.9,63.3,30.06,SSE,158,0.0,0.0,98,0.00,,,0.00,VWS V14.01,2013-07-31 08:09:00,
2013-07-31 03:14:00,64.0,63.5,30.06,SSE,158,0.0,0.0,98,0.00,,,0.00,VWS V14.01,2013-07-31 08:14:00,
2013-07-31 03:19:00,64.0,63.5,30.06,SSE,158,0.0,0.0,98,0.00,,,0.00,VWS V14.01,2013-07-31 08:19:00,
2013-07-31 03:24:00,64.0,63.5,30.06,SE,135,0.0,0.0,98,0.00,,,0.00,VWS V14.01,2013-07-31 08:24:00,
2013-07-31 03:29:00,63.9,63.3,30.06,SE,135,0.0,0.0,98,0.00,,,0.00,VWS V14.01,2013-07-31 08:29:00,
2013-07-31 03:34:00,63.9,63.3,30.06,SE,135,0.0,0.0,98,0.00,,,0.00,VWS V14.01,2013-07-31 08:34:00,
2013-07-31 03:39:00,63.9,63.3,30.06,SE,135,0.0,0.0,98,0.00,,,0.00,VWS V14.01,2013-07-31 08:39:00,
2013-07-31 03:45:00,63.9,63.3,30.06,SE,135,0.0,0.0,98,0.00,,,0.00,VWS V14.01,2013-07-31 08:45:00,
2013-07-31 03:50:00,63.9,63.3,30.06,SE,135,0.0,0.0,98,0.00,,,0.00,VWS V14.01,2013-07-31 08:50:00,
2013-07-31 03:55:00,63.7,63.1,30.06,SE,135,0.0,0.0,98,0.00,,,0.00,VWS V14.01,2013-07-31 08:55:00,
2013-07-31 04:00:00,63.7,63.1,30.06,SE,135,0.0,0.0,98,0.00,,,0.00,VWS V14.01,2013-07-31 09:00:00,
2013-07-31 04:05:00,63.7,63.1,30.06,SE,135,0.0,0.0,98,0.00,,,0.00,VWS V14.01,2013-07-31 09:05:00,
2013-07-31 04:10:00,63.7,63.1,30.06,SE,135,0.0,0.0,98,0.00,,,0.00,VWS V14.01,2013-07-31 09:10:00,
2013-07-31 04:15:00,63.5,62.9,30.06,SE,135,0.0,0.0,98,0.00,,,0.00,VWS V14.01,2013-07-31 09:15:00,
2013-07-31 04:21:00,63.5,62.9,30.06,SE,135,0.0,0.0,98,0.00,,,0.00,VWS V14.01,2013-07-31 09:21:00,
2013-07-31 04:26:00,63.5,62.9,30.06,SE,135,0.0,0.0,98,0.00,,,0.00,VWS V14.01,2013-07-31 09:26:00,
2013-07-31 04:31:00,63.3,62.8,30.06,SE,135,0.0,0.0,98,0.00,,,0.00,VWS V14.01,2013-07-31 09:31:00,
2013-07-31 04:36:00,63.1,62.6,30.06,SE,135,0.0,0.0,98,0.00,,,0.00,VWS V14.01,2013-07-31 09:36:00,
2013-07-31 04:41:00,63.1,62.6,30.06,SE,135,0.0,0.0,98,0.00,,,0.00,VWS V14.01,2013-07-31 09:41:00,
2013-07-31 04:47:00,63.3,62.8,30.06,SSW,202,0.0,1.3,98,0.00,,,0.00,VWS V14.01,2013-07-31 09:47:00,
2013-07-31 04:52:00,63.3,62.8,30.06,SSW,202,0.0,0.0,98,0.00,,,0.00,VWS V14.01,2013-07-31 09:52:00,
2013-07-31 04:57:00,63.3,62.8,30.06,South,180,0.0,0.0,98,0.00,,,0.00,VWS V14.01,2013-07-31 09:57:00,
2013-07-31 05:02:00,63.5,62.9,30.09,South,180,0.0,0.0,98,0.00,,,0.00,VWS V14.01,2013-07-31 10:02:00,
2013-07-31 05:07:00,63.9,63.3,30.09,SSW,202,0.0,2.7,98,0.00,,,0.00,VWS V14.01,2013-07-31 10:07:00,
2013-07-31 05:12:00,63.9,63.3,30.09,North,0,0.0,1.1,98,0.00,,,0.00,VWS V14.01,2013-07-31 10:12:00,
2013-07-31 05:17:00,64.0,63.5,30.09,WSW,248,0.9,1.1,98,0.00,,,0.00,VWS V14.01,2013-07-31 10:17:00,
2013-07-31 05:22:00,64.2,63.7,30.09,WSW,248,0.0,0.9,98,0.00,,,0.00,VWS V14.01,2013-07-31 10:22:00,
2013-07-31 05:27:00,64.2,63.7,30.09,WSW,248,0.0,1.3,98,0.00,,,0.00,VWS V14.01,2013-07-31 10:27:00,
2013-07-31 05:32:00,64.2,63.7,30.09,West,270,0.0,2.0,98,0.00,,,0.00,VWS V14.01,2013-07-31 10:32:00,
2013-07-31 05:38:00,64.4,63.8,30.09,West,270,0.0,0.9,98,0.00,,,0.00,VWS V14.01,2013-07-31 10:38:00,
2013-07-31 05:43:00,64.6,64.0,30.09,SSW,202,0.0,1.1,98,0.00,,,0.00,VWS V14.01,2013-07-31 10:43:00,
2013-07-31 05:48:00,64.6,64.0,30.09,NE,45,0.0,0.0,98,0.00,,,0.00,VWS V14.01,2013-07-31 10:48:00,
2013-07-31 05:53:00,64.6,64.0,30.09,SSE,158,0.0,2.0,98,0.00,,,0.00,VWS V14.01,2013-07-31 10:53:00,
2013-07-31 05:58:00,64.6,64.0,30.09,WNW,292,1.3,2.0,98,0.00,,,0.00,VWS V14.01,2013-07-31 10:58:00,
2013-07-31 06:03:00,64.6,64.0,30.09,WNW,292,0.0,1.3,98,0.00,,,0.00,VWS V14.01,2013-07-31 11:03:00,
2013-07-31 06:08:00,64.8,64.2,30.09,South,180,0.0,2.0,98,0.00,,,0.00,VWS V14.01,2013-07-31 11:08:00,
2013-07-31 06:13:00,64.8,64.2,30.09,SSW,202,0.0,2.5,98,0.00,,,0.00,VWS V14.01,2013-07-31 11:13:00,
2013-07-31 06:18:00,64.8,64.2,30.09,SW,225,0.0,1.6,98,0.00,,,0.00,VWS V14.01,2013-07-31 11:18:00,
2013-07-31 06:23:00,64.8,64.2,30.09,WNW,292,0.0,0.0,98,0.00,,,0.00,VWS V14.01,2013-07-31 11:23:00,
2013-07-31 06:28:00,64.8,64.2,30.09,WNW,292,0.0,1.3,98,0.00,,,0.00,VWS V14.01,2013-07-31 11:28:00,
2013-07-31 06:33:00,64.9,64.4,30.09,NNW,338,1.3,1.3,98,0.00,,,0.00,VWS V14.01,2013-07-31 11:33:00,
2013-07-31 06:38:00,64.8,64.2,30.09,NNW,338,0.0,0.0,98,0.00,,,0.00,VWS V14.01,2013-07-31 11:38:00,
2013-07-31 06:43:00,64.8,64.2,30.09,SW,225,0.0,0.0,98,0.00,,,0.00,VWS V14.01,2013-07-31 11:43:00,
2013-07-31 06:49:00,64.8,64.2,30.09,SW,225,0.0,0.0,98,0.00,,,0.00,VWS V14.01,2013-07-31 11:49:00,
2013-07-31 06:54:00,64.8,64.2,30.09,SW,225,0.9,2.0,98,0.00,,,0.00,VWS V14.01,2013-07-31 11:54:00,
2013-07-31 06:59:00,65.1,64.5,30.09,SW,225,0.0,1.1,98,0.00,,,0.00,VWS V14.01,2013-07-31 11:59:00,
2013-07-31 07:04:00,65.5,64.9,30.09,SW,225,0.0,0.0,98,0.00,,,0.00,VWS V14.01,2013-07-31 12:04:00,
2013-07-31 07:09:00,65.8,65.3,30.09,SW,225,0.0,0.0,98,0.00,,,0.00,VWS V14.01,2013-07-31 12:09:00,
2013-07-31 07:14:00,66.0,65.4,30.09,SSW,202,0.0,1.3,98,0.00,,,0.00,VWS V14.01,2013-07-31 12:14:00,
2013-07-31 07:19:00,66.0,65.4,30.06,WSW,248,0.0,0.0,98,0.00,,,0.00,VWS V14.01,2013-07-31 12:19:00,
2013-07-31 07:24:00,65.8,65.3,30.06,WSW,248,2.0,2.7,98,0.00,,,0.00,VWS V14.01,2013-07-31 12:24:00,
2013-07-31 07:29:00,65.8,65.3,30.06,SSW,202,0.0,2.5,98,0.00,,,0.00,VWS V14.01,2013-07-31 12:29:00,
2013-07-31 07:34:00,65.8,65.3,30.06,NW,315,3.4,3.4,98,0.00,,,0.00,VWS V14.01,2013-07-31 12:34:00,
2013-07-31 07:39:00,66.2,65.6,30.06,NNW,338,0.0,2.2,98,0.00,,,0.00,VWS V14.01,2013-07-31 12:39:00,
2013-07-31 07:44:00,66.4,65.8,30.06,NNW,338,0.0,0.9,98,0.00,,,0.00,VWS V14.01,2013-07-31 12:44:00,
2013-07-31 07:49:00,66.4,65.5,30.09,WNW,292,2.7,4.0,97,0.00,,,0.00,VWS V14.01,2013-07-31 12:49:00,
2013-07-31 07:55:00,66.4,65.5,30.09,WNW,292,0.9,2.2,97,0.00,,,0.00,VWS V14.01,2013-07-31 12:55:00,
2013-07-31 08:00:00,66.4,65.5,30.09,WNW,292,1.6,2.5,97,0.00,,,0.00,VWS V14.01,2013-07-31 13:00:00,
2013-07-31 08:05:00,66.4,65.5,30.06,WSW,248,1.6,2.7,97,0.00,,,0.00,VWS V14.01,2013-07-31 13:05:00,
2013-07-31 08:10:00,66.2,65.3,30.06,WSW,248,1.6,3.6,97,0.00,,,0.00,VWS V14.01,2013-07-31 13:10:00,
2013-07-31 08:15:00,66.4,65.5,30.06,ESE,112,1.1,2.5,97,0.00,,,0.00,VWS V14.01,2013-07-31 13:15:00,
2013-07-31 08:20:00,66.6,65.4,30.06,WNW,292,2.2,4.0,96,0.00,,,0.00,VWS V14.01,2013-07-31 13:20:00,
2013-07-31 08:25:00,67.1,65.9,30.06,NW,315,2.5,2.7,96,0.00,,,0.00,VWS V14.01,2013-07-31 13:25:00,
2013-07-31 08:30:00,67.5,66.3,30.06,West,270,2.7,2.7,96,0.00,,,0.00,VWS V14.01,2013-07-31 13:30:00,
2013-07-31 08:35:00,67.5,66.0,30.06,East,90,1.3,5.4,95,0.00,,,0.00,VWS V14.01,2013-07-31 13:35:00,
2013-07-31 08:40:00,67.5,66.0,30.06,SE,135,1.1,1.3,95,0.00,,,0.00,VWS V14.01,2013-07-31 13:40:00,
2013-07-31 08:46:00,67.3,65.5,30.09,NW,315,2.7,3.6,94,0.00,,,0.00,VWS V14.01,2013-07-31 13:46:00,
2013-07-31 08:51:00,67.3,65.5,30.09,SSE,158,0.0,3.6,94,0.00,,,0.00,VWS V14.01,2013-07-31 13:51:00,
2013-07-31 08:56:00,67.8,66.0,30.09,SW,225,2.2,3.1,94,0.00,,,0.00,VWS V14.01,2013-07-31 13:56:00,
2013-07-31 09:01:00,68.2,65.8,30.09,WNW,292,1.6,4.7,92,0.00,,,0.00,VWS V14.01,2013-07-31 14:01:00,
2013-07-31 09:06:00,68.4,66.3,30.09,North,0,0.0,3.6,93,0.00,,,0.00,VWS V14.01,2013-07-31 14:06:00,
2013-07-31 09:12:00,68.4,65.9,30.09,South,180,3.4,3.4,92,0.00,,,0.00,VWS V14.01,2013-07-31 14:12:00,
2013-07-31 09:17:00,68.4,65.9,30.09,NE,45,1.1,2.7,92,0.00,,,0.00,VWS V14.01,2013-07-31 14:17:00,
2013-07-31 09:22:00,68.5,66.1,30.09,WNW,292,1.6,3.1,92,0.00,,,0.00,VWS V14.01,2013-07-31 14:22:00,
2013-07-31 09:27:00,68.9,66.5,30.09,SSE,158,2.9,3.1,92,0.00,,,0.00,VWS V14.01,2013-07-31 14:27:00,
2013-07-31 09:32:00,68.9,66.2,30.06,WNW,292,3.6,4.9,91,0.00,,,0.00,VWS V14.01,2013-07-31 14:32:00,
2013-07-31 09:37:00,68.7,65.7,30.06,NW,315,2.9,3.1,90,0.00,,,0.00,VWS V14.01,2013-07-31 14:37:00,
2013-07-31 09:42:00,68.9,65.8,30.06,NW,315,2.2,3.1,90,0.00,,,0.00,VWS V14.01,2013-07-31 14:42:00,
2013-07-31 09:48:00,68.9,65.8,30.06,SW,225,2.9,4.9,90,0.00,,,0.00,VWS V14.01,2013-07-31 14:48:00,
2013-07-31 09:53:00,68.9,65.8,30.06,WSW,248,1.6,6.0,90,0.00,,,0.00,VWS V14.01,2013-07-31 14:53:00,
2013-07-31 09:58:00,68.9,65.8,30.06,South,180,0.0,4.0,90,0.00,,,0.00,VWS V14.01,2013-07-31 14:58:00,
2013-07-31 10:03:00,69.4,66.4,30.06,ENE,68,1.1,2.9,90,0.00,,,0.00,VWS V14.01,2013-07-31 15:03:00,
2013-07-31 10:08:00,70.0,66.3,30.06,WSW,248,1.3,4.0,88,0.00,,,0.00,VWS V14.01,2013-07-31 15:08:00,
2013-07-31 10:13:00,70.7,67.0,30.06,NNW,338,5.6,5.6,88,0.00,,,0.00,VWS V14.01,2013-07-31 15:13:00,
2013-07-31 10:18:00,71.4,67.0,30.06,South,180,2.0,2.9,86,0.00,,,0.00,VWS V14.01,2013-07-31 15:18:00,
2013-07-31 10:23:00,71.6,66.5,30.06,West,270,2.0,2.7,84,0.00,,,0.00,VWS V14.01,2013-07-31 15:23:00,
2013-07-31 10:28:00,72.3,66.2,30.06,SSE,158,1.1,3.1,81,0.00,,,0.00,VWS V14.01,2013-07-31 15:28:00,
2013-07-31 10:33:00,72.5,66.3,30.06,WSW,248,4.3,4.3,81,0.00,,,0.00,VWS V14.01,2013-07-31 15:33:00,
2013-07-31 10:38:00,72.9,66.3,30.06,West,270,2.5,2.5,80,0.00,,,0.00,VWS V14.01,2013-07-31 15:38:00,
2013-07-31 10:43:00,73.4,66.9,30.06,SSE,158,1.3,2.9,80,0.00,,,0.00,VWS V14.01,2013-07-31 15:43:00,
2013-07-31 10:49:00,73.4,66.1,30.06,SSE,158,3.1,3.1,78,0.00,,,0.00,VWS V14.01,2013-07-31 15:49:00,
2013-07-31 10:53:00,73.8,67.2,30.06,NNW,338,1.3,4.0,80,0.00,,,0.00,VWS V14.01,2013-07-31 15:53:00,
2013-07-31 10:59:00,74.5,67.6,30.06,ENE,68,0.9,4.9,79,0.00,,,0.00,VWS V14.01,2013-07-31 15:59:00,
2013-07-31 11:04:00,75.0,66.9,30.06,SSE,158,1.6,1.6,76,0.00,,,0.00,VWS V14.01,2013-07-31 16:04:00,
2013-07-31 11:09:00,75.0,67.7,30.06,SSE,158,1.3,3.1,78,0.00,,,0.00,VWS V14.01,2013-07-31 16:09:00,
2013-07-31 11:14:00,75.0,66.2,30.06,WNW,292,2.5,2.7,74,0.00,,,0.00,VWS V14.01,2013-07-31 16:14:00,
2013-07-31 11:19:00,75.6,67.1,30.06,South,180,2.2,3.4,75,0.00,,,0.00,VWS V14.01,2013-07-31 16:19:00,
2013-07-31 11:24:00,76.3,67.4,30.06,NE,45,2.7,2.9,74,0.00,,,0.00,VWS V14.01,2013-07-31 16:24:00,
2013-07-31 11:30:00,76.5,67.2,30.06,WNW,292,1.1,4.3,73,0.00,,,0.00,VWS V14.01,2013-07-31 16:30:00,
2013-07-31 11:35:00,76.6,68.1,30.03,NW,315,1.1,1.6,75,0.00,,,0.00,VWS V14.01,2013-07-31 16:35:00,
2013-07-31 11:40:00,77.2,67.5,30.03,SW,225,3.8,4.3,72,0.00,,,0.00,VWS V14.01,2013-07-31 16:40:00,
2013-07-31 11:45:00,77.0,66.5,30.03,South,180,2.2,2.2,70,0.00,,,0.00,VWS V14.01,2013-07-31 16:45:00,
2013-07-31 11:50:00,76.8,66.7,30.06,SW,225,2.7,3.8,71,0.00,,,0.00,VWS V14.01,2013-07-31 16:50:00,
2013-07-31 11:55:00,76.8,65.5,30.06,SW,225,2.9,6.0,68,0.00,,,0.00,VWS V14.01,2013-07-31 16:55:00,
2013-07-31 12:00:00,76.5,65.5,30.06,SSE,158,2.2,5.8,69,0.00,,,0.00,VWS V14.01,2013-07-31 17:00:00,
2013-07-31 12:05:00,76.3,65.4,30.06,SSW,202,2.5,4.0,69,0.00,,,0.00,VWS V14.01,2013-07-31 17:05:00,
2013-07-31 12:10:00,75.7,64.9,30.06,WNW,292,3.8,7.2,69,0.00,,,0.00,VWS V14.01,2013-07-31 17:10:00,
2013-07-31 12:15:00,75.2,66.0,30.06,South,180,2.0,4.0,73,0.00,,,0.00,VWS V14.01,2013-07-31 17:15:00,
2013-07-31 12:20:00,73.9,65.1,30.06,NW,315,2.7,5.4,74,0.00,,,0.00,VWS V14.01,2013-07-31 17:20:00,
2013-07-31 12:25:00,73.2,65.6,30.06,NW,315,0.9,3.1,77,0.00,,,0.00,VWS V14.01,2013-07-31 17:25:00,
2013-07-31 12:30:00,72.7,66.5,30.06,NW,315,2.5,2.7,81,0.00,,,0.00,VWS V14.01,2013-07-31 17:30:00,
2013-07-31 12:36:00,72.0,66.9,30.06,NW,315,3.1,3.1,84,0.00,,,0.00,VWS V14.01,2013-07-31 17:36:00,
2013-07-31 12:41:00,71.8,67.0,30.06,ESE,112,2.0,2.7,85,0.00,,,0.00,VWS V14.01,2013-07-31 17:41:00,
2013-07-31 12:46:00,71.8,67.4,30.06,North,0,2.5,2.5,86,0.00,,,0.00,VWS V14.01,2013-07-31 17:46:00,
2013-07-31 12:51:00,72.0,67.2,30.06,SSW,202,1.1,4.9,85,0.00,,,0.00,VWS V14.01,2013-07-31 17:51:00,
2013-07-31 12:56:00,72.1,67.0,30.06,NNW,338,2.9,3.4,84,0.00,,,0.00,VWS V14.01,2013-07-31 17:56:00,
2013-07-31 13:01:00,72.0,66.2,30.06,NNW,338,0.0,4.7,82,0.00,,,0.00,VWS V14.01,2013-07-31 18:01:00,
2013-07-31 13:06:00,71.6,66.5,30.06,SE,135,1.1,3.8,84,0.00,,,0.00,VWS V14.01,2013-07-31 18:06:00,
2013-07-31 13:11:00,71.1,66.7,30.06,SSW,202,2.7,4.0,86,0.00,,,0.00,VWS V14.01,2013-07-31 18:11:00,
2013-07-31 13:16:00,71.1,67.0,30.06,South,180,2.5,4.3,87,0.00,,,0.00,VWS V14.01,2013-07-31 18:16:00,
2013-07-31 13:22:00,71.1,67.3,30.06,SSW,202,1.6,3.4,88,0.00,,,0.00,VWS V14.01,2013-07-31 18:22:00,
2013-07-31 13:27:00,71.2,67.2,30.06,WNW,292,1.3,6.5,87,0.00,,,0.00,VWS V14.01,2013-07-31 18:27:00,
2013-07-31 13:32:00,71.2,66.5,30.06,NNW,338,0.9,4.3,85,0.00,,,0.00,VWS V14.01,2013-07-31 18:32:00,
2013-07-31 13:37:00,71.4,66.7,30.06,WSW,248,2.5,3.8,85,0.00,,,0.00,VWS V14.01,2013-07-31 18:37:00,
2013-07-31 13:42:00,71.4,66.7,30.06,SE,135,1.6,4.0,85,0.00,,,0.00,VWS V14.01,2013-07-31 18:42:00,
2013-07-31 13:47:00,71.6,67.2,30.06,WNW,292,1.6,2.5,86,0.00,,,0.00,VWS V14.01,2013-07-31 18:47:00,
2013-07-31 13:52:00,71.6,67.2,30.06,NW,315,1.6,3.1,86,0.00,,,0.00,VWS V14.01,2013-07-31 18:52:00,
2013-07-31 13:57:00,71.6,66.2,30.06,WSW,248,1.1,4.0,83,0.00,,,0.00,VWS V14.01,2013-07-31 18:57:00,
2013-07-31 14:02:00,71.6,65.8,30.06,West,270,1.6,4.7,82,0.00,,,0.00,VWS V14.01,2013-07-31 19:02:00,
2013-07-31 14:07:00,71.6,66.2,30.06,NW,315,2.7,4.3,83,0.00,,,0.00,VWS V14.01,2013-07-31 19:07:00,
2013-07-31 14:13:00,72.0,66.5,30.06,SSE,158,1.1,4.0,83,0.00,,,0.00,VWS V14.01,2013-07-31 19:13:00,
2013-07-31 14:18:00,72.1,66.7,30.03,North,0,2.9,4.5,83,0.00,,,0.00,VWS V14.01,2013-07-31 19:18:00,
2013-07-31 14:23:00,72.3,66.9,30.03,North,0,0.9,4.9,83,0.00,,,0.00,VWS V14.01,2013-07-31 19:23:00,
2013-07-31 14:28:00,72.9,66.7,30.03,NNW,338,0.9,4.3,81,0.00,,,0.00,VWS V14.01,2013-07-31 19:28:00,
2013-07-31 14:33:00,73.4,67.2,30.03,WNW,292,1.3,1.3,81,0.00,,,0.00,VWS V14.01,2013-07-31 19:33:00,
2013-07-31 14:38:00,74.7,68.1,30.03,South,180,3.4,3.4,80,0.00,,,0.00,VWS V14.01,2013-07-31 19:38:00,
2013-07-31 14:43:00,74.8,67.5,30.03,WNW,292,2.2,2.5,78,0.00,,,0.00,VWS V14.01,2013-07-31 19:43:00,
2013-07-31 14:48:00,75.6,68.2,30.06,SSW,202,2.9,2.9,78,0.00,,,0.00,VWS V14.01,2013-07-31 19:48:00,
2013-07-31 14:53:00,75.7,66.5,30.06,South,180,3.6,3.6,73,0.00,,,0.00,VWS V14.01,2013-07-31 19:53:00,
2013-07-31 14:58:00,76.3,66.6,30.06,WNW,292,0.9,0.9,72,0.00,,,0.00,VWS V14.01,2013-07-31 19:58:00,
2013-07-31 15:04:00,76.8,66.3,30.03,ESE,112,3.6,3.6,70,0.00,,,0.00,VWS V14.01,2013-07-31 20:04:00,
2013-07-31 15:09:00,76.5,64.7,30.03,North,0,2.2,4.3,67,0.00,,,0.00,VWS V14.01,2013-07-31 20:09:00,
2013-07-31 15:10:00,76.8,64.6,30.03,NW,315,1.6,4.7,66,0.00,,,0.00,VWS V14.01,2013-07-31 20:10:00,
2013-07-31 15:15:00,77.9,65.2,30.03,SW,225,4.5,4.9,65,0.00,,,0.00,VWS V14.01,2013-07-31 20:15:00,
2013-07-31 15:20:00,77.9,64.8,30.03,SSW,202,4.9,4.9,64,0.00,,,0.00,VWS V14.01,2013-07-31 20:20:00,
2013-07-31 15:25:00,78.3,64.6,30.03,NNW,338,2.0,4.9,63,0.00,,,0.00,VWS V14.01,2013-07-31 20:25:00,
2013-07-31 15:30:00,79.0,64.4,30.03,WSW,248,6.5,9.8,61,0.00,,,0.00,VWS V14.01,2013-07-31 20:30:00,
2013-07-31 15:35:00,79.3,65.7,30.03,WSW,248,1.6,3.4,63,0.00,,,0.00,VWS V14.01,2013-07-31 20:35:00,
2013-07-31 15:40:00,79.5,63.0,30.03,NNW,338,3.1,6.3,57,0.00,,,0.00,VWS V14.01,2013-07-31 20:40:00,
2013-07-31 15:45:00,78.8,63.8,30.03,NE,45,3.1,5.8,60,0.00,,,0.00,VWS V14.01,2013-07-31 20:45:00,
2013-07-31 15:50:00,79.2,63.6,30.03,NW,315,1.6,6.3,59,0.00,,,0.00,VWS V14.01,2013-07-31 20:50:00,
2013-07-31 15:55:00,78.6,61.1,30.03,WSW,248,3.4,10.7,55,0.00,,,0.00,VWS V14.01,2013-07-31 20:55:00,
2013-07-31 16:00:00,78.4,62.9,30.00,WNW,292,5.6,7.2,59,0.00,,,0.00,VWS V14.01,2013-07-31 21:00:00,
2013-07-31 16:05:00,79.2,61.6,30.00,SSE,158,5.4,5.4,55,0.00,,,0.00,VWS V14.01,2013-07-31 21:05:00,
2013-07-31 16:11:00,79.5,60.9,30.00,SW,225,2.5,4.7,53,0.00,,,0.00,VWS V14.01,2013-07-31 21:11:00,
2013-07-31 16:16:00,79.0,60.4,30.00,West,270,2.0,4.9,53,0.00,,,0.00,VWS V14.01,2013-07-31 21:16:00,
2013-07-31 16:21:00,77.7,59.2,30.00,NE,45,0.9,6.0,53,0.00,,,0.00,VWS V14.01,2013-07-31 21:21:00,
2013-07-31 16:26:00,78.4,60.4,30.00,NW,315,5.6,5.8,54,0.00,,,0.00,VWS V14.01,2013-07-31 21:26:00,
2013-07-31 16:31:00,79.3,61.8,29.97,WNW,292,0.9,4.3,55,0.00,,,0.00,VWS V14.01,2013-07-31 21:31:00,
2013-07-31 16:36:00,79.9,60.7,29.97,NW,315,2.9,3.4,52,0.00,,,0.00,VWS V14.01,2013-07-31 21:36:00,
2013-07-31 16:42:00,79.7,58.3,29.97,NW,315,4.7,4.9,48,0.00,,,0.00,VWS V14.01,2013-07-31 21:42:00,
2013-07-31 16:47:00,79.3,58.5,30.00,NE,45,3.1,5.8,49,0.00,,,0.00,VWS V14.01,2013-07-31 21:47:00,
2013-07-31 16:52:00,78.3,57.5,30.00,WSW,248,3.4,5.8,49,0.00,,,0.00,VWS V14.01,2013-07-31 21:52:00,
2013-07-31 16:57:00,77.7,58.2,30.00,NNE,22,0.9,3.4,51,0.00,,,0.00,VWS V14.01,2013-07-31 21:57:00,
2013-07-31 17:02:00,78.1,59.6,30.00,SSE,158,6.0,6.0,53,0.00,,,0.00,VWS V14.01,2013-07-31 22:02:00,
2013-07-31 17:07:00,78.1,60.1,30.00,NW,315,0.9,3.4,54,0.00,,,0.00,VWS V14.01,2013-07-31 22:07:00,
2013-07-31 17:12:00,78.3,60.3,30.00,NW,315,2.2,5.4,54,0.00,,,0.00,VWS V14.01,2013-07-31 22:12:00,
2013-07-31 17:17:00,77.4,58.9,30.00,NE,45,1.3,4.0,53,0.00,,,0.00,VWS V14.01,2013-07-31 22:17:00,
2013-07-31 17:22:00,76.6,58.2,30.00,South,180,1.6,3.8,53,0.00,,,0.00,VWS V14.01,2013-07-31 22:22:00,
2013-07-31 17:27:00,75.9,58.1,30.00,South,180,1.6,3.1,54,0.00,,,0.00,VWS V14.01,2013-07-31 22:27:00,
2013-07-31 17:32:00,75.7,58.4,30.00,South,180,2.7,3.4,55,0.00,,,0.00,VWS V14.01,2013-07-31 22:32:00,
2013-07-31 17:38:00,76.3,58.9,30.00,WSW,248,1.1,5.4,55,0.00,,,0.00,VWS V14.01,2013-07-31 22:38:00,
2013-07-31 17:43:00,77.2,59.3,30.00,West,270,2.5,4.3,54,0.00,,,0.00,VWS V14.01,2013-07-31 22:43:00,
2013-07-31 17:48:00,77.7,59.8,30.00,NNE,22,1.1,7.4,54,0.00,,,0.00,VWS V14.01,2013-07-31 22:48:00,
2013-07-31 17:53:00,78.4,59.9,30.00,NNW,338,2.5,3.6,53,0.00,,,0.00,VWS V14.01,2013-07-31 22:53:00,
2013-07-31 17:58:00,77.5,58.5,30.00,NW,315,3.1,5.8,52,0.00,,,0.00,VWS V14.01,2013-07-31 22:58:00,
2013-07-31 18:03:00,76.8,58.9,30.00,NW,315,1.3,5.4,54,0.00,,,0.00,VWS V14.01,2013-07-31 23:03:00,
2013-07-31 18:08:00,75.9,58.6,30.00,NW,315,1.1,4.0,55,0.00,,,0.00,VWS V14.01,2013-07-31 23:08:00,
2013-07-31 18:13:00,75.6,59.3,30.00,South,180,0.0,2.0,57,0.00,,,0.00,VWS V14.01,2013-07-31 23:13:00,
2013-07-31 18:18:00,76.1,60.8,30.00,WNW,292,2.0,2.7,59,0.00,,,0.00,VWS V14.01,2013-07-31 23:18:00,
2013-07-31 18:23:00,76.3,61.9,30.00,WNW,292,0.0,2.5,61,0.00,,,0.00,VWS V14.01,2013-07-31 23:23:00,
2013-07-31 18:28:00,75.6,61.2,30.00,SSE,158,2.9,3.6,61,0.00,,,0.00,VWS V14.01,2013-07-31 23:28:00,
2013-07-31 18:33:00,75.2,60.8,30.00,NW,315,1.3,2.9,61,0.00,,,0.00,VWS V14.01,2013-07-31 23:33:00,
2013-07-31 18:38:00,74.5,59.2,30.00,WSW,248,4.3,7.6,59,0.00,,,0.00,VWS V14.01,2013-07-31 23:38:00,
2013-07-31 18:43:00,74.1,59.4,30.00,WNW,292,0.0,4.3,60,0.00,,,0.00,VWS V14.01,2013-07-31 23:43:00,
2013-07-31 18:48:00,74.3,59.5,30.00,SE,135,3.6,4.0,60,0.00,,,0.00,VWS V14.01,2013-07-31 23:48:00,
2013-07-31 18:53:00,74.3,59.1,30.00,North,0,3.4,3.4,59,0.00,,,0.00,VWS V14.01,2013-07-31 23:53:00,
2013-07-31 18:58:00,73.9,58.7,30.00,NNW,338,2.0,3.4,59,0.00,,,0.00,VWS V14.01,2013-07-31 23:58:00,
2013-07-31 19:03:00,73.8,58.5,30.03,ENE,68,2.2,7.4,59,0.00,,,0.00,VWS V14.01,2013-08-01 00:03:00,
2013-07-31 19:08:00,73.6,58.8,30.03,NW,315,1.6,2.7,60,0.00,,,0.00,VWS V14.01,2013-08-01 00:08:00,
2013-07-31 19:13:00,73.2,59.0,30.03,South,180,0.0,0.0,61,0.00,,,0.00,VWS V14.01,2013-08-01 00:13:00,
2013-07-31 19:18:00,73.0,59.3,30.00,WNW,292,0.0,0.0,62,0.00,,,0.00,VWS V14.01,2013-08-01 00:18:00,
2013-07-31 19:23:00,72.9,59.1,30.00,WSW,248,3.4,3.4,62,0.00,,,0.00,VWS V14.01,2013-08-01 00:23:00,
2013-07-31 19:28:00,72.5,59.2,30.00,North,0,0.9,3.4,63,0.00,,,0.00,VWS V14.01,2013-08-01 00:28:00,
2013-07-31 19:33:00,72.3,59.5,30.00,South,180,1.6,2.7,64,0.00,,,0.00,VWS V14.01,2013-08-01 00:33:00,
2013-07-31 19:38:00,72.0,60.0,30.00,SW,225,1.3,1.3,66,0.00,,,0.00,VWS V14.01,2013-08-01 00:38:00,
2013-07-31 19:43:00,71.6,59.7,30.00,SSE,158,0.0,0.0,66,0.00,,,0.00,VWS V14.01,2013-08-01 00:43:00,
2013-07-31 19:48:00,71.2,60.2,30.00,South,180,0.0,0.0,68,0.00,,,0.00,VWS V14.01,2013-08-01 00:48:00,
2013-07-31 19:53:00,70.7,60.0,30.00,South,180,0.0,0.0,69,0.00,,,0.00,VWS V14.01,2013-08-01 00:53:00,
2013-07-31 19:58:00,70.3,59.7,30.00,WNW,292,0.0,0.0,69,0.00,,,0.00,VWS V14.01,2013-08-01 00:58:00,
2013-07-31 20:04:00,69.8,60.0,30.00,WNW,292,0.0,0.0,71,0.00,,,0.00,VWS V14.01,2013-08-01 01:04:00,
2013-07-31 20:09:00,69.3,59.9,30.00,WNW,292,0.0,0.0,72,0.00,,,0.00,VWS V14.01,2013-08-01 01:09:00,
2013-07-31 20:14:00,68.7,59.7,30.00,WNW,292,0.0,0.0,73,0.00,,,0.00,VWS V14.01,2013-08-01 01:14:00,
2013-07-31 20:19:00,68.2,59.6,29.97,WNW,292,0.0,0.0,74,0.00,,,0.00,VWS V14.01,2013-08-01 01:19:00,
2013-07-31 20:24:00,67.8,60.0,29.97,WNW,292,0.0,0.0,76,0.00,,,0.00,VWS V14.01,2013-08-01 01:24:00,
2013-07-31 20:29:00,67.3,59.8,29.97,WNW,292,0.0,0.0,77,0.00,,,0.00,VWS V14.01,2013-08-01 01:29:00,
2013-07-31 20:34:00,66.7,60.0,30.03,WNW,292,0.0,0.0,79,0.00,,,0.00,VWS V14.01,2013-08-01 01:34:00,
2013-07-31 20:39:00,66.4,60.0,30.03,SSE,158,0.0,0.0,80,0.00,,,0.00,VWS V14.01,2013-08-01 01:39:00,
2013-07-31 20:44:00,66.2,60.2,30.03,SSE,158,0.0,0.0,81,0.00,,,0.00,VWS V14.01,2013-08-01 01:44:00,
2013-07-31 20:49:00,65.8,60.2,29.97,SSE,158,0.0,0.0,82,0.00,,,0.00,VWS V14.01,2013-08-01 01:49:00,
2013-07-31 20:54:00,65.3,60.3,29.97,SSE,158,0.0,0.0,84,0.00,,,0.00,VWS V14.01,2013-08-01 01:54:00,
2013-07-31 20:59:00,65.1,60.2,29.97,SSE,158,0.0,0.0,84,0.00,,,0.00,VWS V14.01,2013-08-01 01:59:00,
2013-07-31 21:04:00,64.6,59.6,29.97,SSE,158,0.0,0.0,84,0.00,,,0.00,VWS V14.01,2013-08-01 02:04:00,
2013-07-31 21:10:00,64.0,59.8,29.97,SSE,158,0.0,0.0,86,0.00,,,0.00,VWS V14.01,2013-08-01 02:10:00,
2013-07-31 21:15:00,63.7,59.7,29.97,SSE,158,0.0,0.0,87,0.00,,,0.00,VWS V14.01,2013-08-01 02:15:00,
2013-07-31 21:20:00,63.3,59.4,30.00,SSE,158,0.0,0.0,87,0.00,,,0.00,VWS V14.01,2013-08-01 02:20:00,
2013-07-31 21:25:00,63.0,59.4,30.00,SSE,158,0.0,0.0,88,0.00,,,0.00,VWS V14.01,2013-08-01 02:25:00,
2013-07-31 21:30:00,62.6,59.3,30.00,SSE,158,0.0,0.0,89,0.00,,,0.00,VWS V14.01,2013-08-01 02:30:00,
2013-07-31 21:35:00,62.2,59.3,29.97,SSE,158,0.0,0.0,90,0.00,,,0.00,VWS V14.01,2013-08-01 02:35:00,
2013-07-31 21:40:00,61.7,59.0,29.97,SSE,158,0.0,0.0,91,0.00,,,0.00,VWS V14.01,2013-08-01 02:40:00,
2013-07-31 21:45:00,61.3,58.4,29.97,SSE,158,0.0,0.0,90,0.00,,,0.00,VWS V14.01,2013-08-01 02:45:00,
2013-07-31 21:50:00,61.2,58.5,30.00,SSE,158,0.0,0.0,91,0.00,,,0.00,VWS V14.01,2013-08-01 02:50:00,
2013-07-31 21:55:00,60.6,58.0,30.00,SSE,158,0.0,0.0,91,0.00,,,0.00,VWS V14.01,2013-08-01 02:55:00,
2013-07-31 22:00:00,60.4,58.1,30.00,SSE,158,0.0,0.0,92,0.00,,,0.00,VWS V14.01,2013-08-01 03:00:00,
2013-07-31 22:05:00,60.1,57.8,30.00,SSE,158,0.0,0.0,92,0.00,,,0.00,VWS V14.01,2013-08-01 03:05:00,
2013-07-31 22:11:00,60.1,57.8,30.00,SSE,158,0.0,0.0,92,0.00,,,0.00,VWS V14.01,2013-08-01 03:11:00,
2013-07-31 22:16:00,59.5,57.2,30.00,SSE,158,0.0,0.0,92,0.00,,,0.00,VWS V14.01,2013-08-01 03:16:00,
2013-07-31 22:21:00,59.4,57.3,30.00,SSE,158,0.0,0.0,93,0.00,,,0.00,VWS V14.01,2013-08-01 03:21:00,
2013-07-31 22:26:00,59.4,57.3,30.00,SSE,158,0.0,0.0,93,0.00,,,0.00,VWS V14.01,2013-08-01 03:26:00,
2013-07-31 22:31:00,59.2,57.2,30.00,SSE,158,0.0,0.0,93,0.00,,,0.00,VWS V14.01,2013-08-01 03:31:00,
2013-07-31 22:36:00,59.0,57.3,30.00,SSE,158,0.0,0.0,94,0.00,,,0.00,VWS V14.01,2013-08-01 03:36:00,
2013-07-31 22:41:00,59.0,57.3,30.00,SSE,158,0.0,0.0,94,0.00,,,0.00,VWS V14.01,2013-08-01 03:41:00,
2013-07-31 22:46:00,58.8,57.4,30.00,SSE,158,0.0,0.0,95,0.00,,,0.00,VWS V14.01,2013-08-01 03:46:00,
2013-07-31 22:51:00,58.5,57.0,30.00,SSE,158,0.0,0.0,95,0.00,,,0.00,VWS V14.01,2013-08-01 03:51:00,
2013-07-31 22:57:00,58.5,57.0,30.00,SSE,158,0.0,0.0,95,0.00,,,0.00,VWS V14.01,2013-08-01 03:57:00,
2013-07-31 23:01:00,58.1,56.7,30.00,SSE,158,0.0,0.0,95,0.00,,,0.00,VWS V14.01,2013-08-01 04:01:00,
2013-07-31 23:02:00,58.1,56.7,30.00,SSE,158,0.0,0.0,95,0.00,,,0.00,VWS V14.01,2013-08-01 04:02:00,
2013-07-31 23:08:00,57.7,56.3,30.00,SSE,158,0.0,0.0,95,0.00,,,0.00,VWS V14.01,2013-08-01 04:08:00,
2013-07-31 23:13:00,57.7,56.3,30.00,SSE,158,0.0,0.0,95,0.00,,,0.00,VWS V14.01,2013-08-01 04:13:00,
2013-07-31 23:18:00,57.4,56.0,30.00,SSE,158,0.0,0.0,95,0.00,,,0.00,VWS V14.01,2013-08-01 04:18:00,
2013-07-31 23:23:00,57.2,55.8,30.00,SSE,158,0.0,0.0,95,0.00,,,0.00,VWS V14.01,2013-08-01 04:23:00,
2013-07-31 23:28:00,57.0,55.6,30.00,SSE,158,0.0,0.0,95,0.00,,,0.00,VWS V14.01,2013-08-01 04:28:00,
2013-07-31 23:33:00,56.8,55.4,30.00,SSE,158,0.0,0.0,95,0.00,,,0.00,VWS V14.01,2013-08-01 04:33:00,
2013-07-31 23:38:00,56.7,55.5,30.00,SSE,158,0.0,0.0,96,0.00,,,0.00,VWS V14.01,2013-08-01 04:38:00,
2013-07-31 23:43:00,56.7,55.5,30.00,SSE,158,0.0,0.0,96,0.00,,,0.00,VWS V14.01,2013-08-01 04:43:00,
2013-07-31 23:48:00,56.5,55.4,30.00,SSE,158,0.0,0.0,96,0.00,,,0.00,VWS V14.01,2013-08-01 04:48:00,
2013-07-31 23:53:00,56.5,55.4,30.00,SSE,158,0.0,0.0,96,0.00,,,0.00,VWS V14.01,2013-08-01 04:53:00,
2013-07-31 23:58:00,56.5,55.4,30.00,SSE,158,0.0,0.0,96,0.00,,,0.00,VWS V14.01,2013-08-01 04:58:00,